Time;durP1;ratioP1;P1;durP2;ratioP2;P2;SDS_P1;SDS_P2;PMS_P1;PMS_P2;Temp;Humidity;BMP_temperature;BMP_pressure;BME280_temperature;BME280_humidity;BME280_pressure;Samples;Min_cycle;Max_cycle;Signal;HPM_P1;HPM_P2
2021/04/14 00:00:27;;;;;;;16.42;11.73;;;4.70;77.20;;;3.70;63.31;95577.53;5055413;28;20236;-85
2021/04/14 00:02:54;;;;;;;13.35;10.52;;;4.60;77.30;;;3.66;63.28;95571.78;5042648;28;20208;-85
2021/04/14 00:05:25;;;;;;;13.43;10.35;;;4.60;77.20;;;3.62;63.63;95580.78;5018907;28;20197;-85
2021/04/14 00:07:52;;;;;;;12.32;9.98;;;4.60;77.40;;;3.60;63.76;95572.31;5035093;28;20221;-85
2021/04/14 00:10:24;;;;;;;13.90;11.05;;;4.60;77.40;;;3.54;64.01;95578.03;5002537;28;20192;-85
2021/04/14 00:12:51;;;;;;;10.63;9.35;;;4.60;77.50;;;3.51;63.48;95560.94;5042950;28;20235;-85
2021/04/14 00:15:26;;;;;;;14.15;10.90;;;4.60;77.50;;;3.50;63.81;95563.69;5071557;28;20218;-85
2021/04/14 00:17:52;;;;;;;15.45;10.18;;;4.60;77.60;;;3.51;63.88;95570.50;5039749;28;20736;-85
2021/04/14 00:20:20;;;;;;;13.63;10.15;;;4.50;77.50;;;3.48;63.93;95569.00;5052021;28;20207;-85
2021/04/14 00:22:48;;;;;;;15.60;10.40;;;4.50;77.50;;;3.47;63.69;95554.38;5054842;28;20212;-85
2021/04/14 00:25:23;;;;;;;17.48;9.95;;;4.40;77.50;;;3.43;63.47;95554.78;5033648;28;20733;-86
2021/04/14 00:27:50;;;;;;;13.10;10.02;;;4.40;77.50;;;3.42;64.29;95551.38;5037412;28;20208;-85
2021/04/14 00:30:18;;;;;;;11.82;10.02;;;4.40;77.60;;;3.38;64.08;95557.75;5040255;28;20193;-86
2021/04/14 00:32:45;;;;;;;14.88;9.85;;;4.40;77.50;;;3.35;64.52;95555.44;5022195;28;20229;-85
2021/04/14 00:35:13;;;;;;;11.52;9.38;;;4.40;77.70;;;3.32;64.17;95551.34;5054907;28;20193;-85
2021/04/14 00:37:40;;;;;;;14.60;10.45;;;4.30;77.60;;;3.31;64.22;95547.09;5054507;28;20251;-85
2021/04/14 00:40:14;;;;;;;15.38;11.23;;;4.30;77.60;;;3.33;64.17;95553.00;5038231;28;20625;-86
2021/04/14 00:42:41;;;;;;;13.85;9.98;;;4.30;77.60;;;3.31;64.00;95549.69;5038057;28;20771;-86
2021/04/14 00:45:08;;;;;;;16.13;11.45;;;4.30;77.60;;;3.28;64.11;95552.53;5037994;28;20200;-85
2021/04/14 00:47:35;;;;;;;14.93;10.43;;;4.30;77.70;;;3.26;64.14;95553.63;5037133;28;20227;-85
2021/04/14 00:50:09;;;;;;;15.73;10.93;;;4.40;77.80;;;3.25;64.21;95552.81;5050149;28;20238;-85
2021/04/14 00:52:36;;;;;;;13.23;10.63;;;4.30;77.80;;;3.25;64.36;95551.97;5068389;28;20216;-85
2021/04/14 00:55:07;;;;;;;12.52;10.15;;;4.20;77.80;;;3.27;64.18;95555.28;5046486;28;20272;-85
2021/04/14 00:57:34;;;;;;;15.98;11.15;;;4.20;77.80;;;3.29;64.19;95554.19;5016960;28;20275;-85
2021/04/14 01:00:01;;;;;;;15.45;10.82;;;4.20;77.90;;;3.29;64.09;95556.78;5029291;28;20204;-85
2021/04/14 01:02:28;;;;;;;12.98;10.55;;;4.20;77.80;;;3.33;63.71;95554.75;5038844;28;20270;-85
2021/04/14 01:04:55;;;;;;;16.67;11.77;;;4.30;77.90;;;3.30;63.76;95553.25;5016835;28;20204;-85
2021/04/14 01:07:22;;;;;;;15.55;10.73;;;4.20;77.80;;;3.30;63.80;95555.03;5049732;28;20216;-86
2021/04/14 01:09:48;;;;;;;13.52;11.35;;;4.20;77.70;;;3.26;63.92;95554.47;5050699;28;20264;-85
2021/04/14 01:12:15;;;;;;;14.20;11.75;;;4.20;77.60;;;3.26;63.74;95549.28;5019272;28;20224;-86
2021/04/14 01:14:42;;;;;;;13.40;11.27;;;4.20;77.70;;;3.24;64.01;95550.38;5034790;28;20192;-85
2021/04/14 01:17:09;;;;;;;13.82;10.95;;;4.20;77.70;;;3.26;63.66;95545.84;5036336;28;20220;-85
2021/04/14 01:19:36;;;;;;;16.13;11.90;;;4.20;77.70;;;3.25;63.80;95544.19;5024762;28;20574;-86
2021/04/14 01:22:03;;;;;;;15.27;11.98;;;4.20;77.70;;;3.23;63.87;95554.72;5032865;28;20213;-85
2021/04/14 01:24:30;;;;;;;15.18;12.20;;;4.20;77.70;;;3.18;63.68;95549.91;5015837;28;20192;-85
2021/04/14 01:26:57;;;;;;;14.00;11.88;;;4.20;77.70;;;3.18;63.49;95539.53;5016389;28;20228;-85
2021/04/14 01:29:24;;;;;;;15.00;11.57;;;4.20;77.60;;;3.21;63.77;95543.66;5016054;28;20224;-86
2021/04/14 01:31:51;;;;;;;14.45;11.63;;;4.20;77.70;;;3.20;63.92;95549.81;5032759;28;20212;-83
2021/04/14 01:34:19;;;;;;;14.73;11.95;;;4.20;77.70;;;3.12;64.07;95547.84;4999546;28;20223;-85
2021/04/14 01:36:46;;;;;;;15.10;11.52;;;4.20;77.70;;;3.14;63.91;95545.94;5016341;28;20274;-85
2021/04/14 01:39:15;;;;;;;17.17;13.60;;;4.10;77.60;;;3.10;63.97;95544.56;5033543;28;20573;-85
2021/04/14 01:41:43;;;;;;;15.10;11.00;;;4.20;77.80;;;3.07;64.25;95537.03;5033848;28;20223;-85
2021/04/14 01:44:10;;;;;;;15.65;11.85;;;4.10;77.80;;;3.09;64.21;95536.91;5035922;28;20202;-85
2021/04/14 01:46:40;;;;;;;19.67;12.27;;;4.10;77.80;;;3.05;63.99;95531.16;4994701;28;630902;-85
2021/04/14 01:49:10;;;;;;;13.50;10.68;;;4.20;78.10;;;3.10;64.41;95542.00;5062525;28;20219;-85
2021/04/14 01:51:38;;;;;;;13.68;11.00;;;4.10;78.00;;;3.12;64.20;95540.06;5036870;28;20208;-85
2021/04/14 01:54:05;;;;;;;14.45;11.18;;;4.10;77.90;;;3.12;64.11;95536.66;5036612;28;20196;-85
2021/04/14 01:56:33;;;;;;;14.88;11.15;;;4.10;77.90;;;3.14;64.34;95545.94;5036443;28;20223;-85
2021/04/14 01:59:00;;;;;;;14.65;10.63;;;4.10;78.00;;;3.16;63.91;95532.84;5036519;28;20273;-85
2021/04/14 02:01:26;;;;;;;13.80;10.10;;;4.10;78.10;;;3.19;63.92;95536.00;5036706;28;20222;-85
2021/04/14 02:03:53;;;;;;;15.63;10.88;;;4.10;78.00;;;3.22;64.04;95542.69;5020252;28;20208;-85
2021/04/14 02:06:20;;;;;;;14.38;10.02;;;4.10;77.90;;;3.21;63.74;95533.31;5036796;28;20192;-85
2021/04/14 02:08:47;;;;;;;15.20;11.00;;;4.10;77.80;;;3.17;63.93;95535.34;5036622;28;20254;-86
2021/04/14 02:11:16;;;;;;;14.10;10.57;;;4.20;77.90;;;3.16;63.76;95536.28;5036734;28;20402;-85
2021/04/14 02:13:44;;;;;;;13.32;11.15;;;4.10;77.70;;;3.16;63.98;95530.25;5036744;28;20204;-85
2021/04/14 02:16:18;;;;;;;14.52;10.75;;;4.10;77.80;;;3.13;63.88;95533.94;5028868;28;20189;-85
2021/04/14 02:18:45;;;;;;;13.95;11.32;;;4.10;77.80;;;3.09;63.95;95540.34;5021986;28;20219;-85
2021/04/14 02:21:12;;;;;;;14.15;10.75;;;4.10;77.70;;;3.10;64.06;95538.56;5036215;28;20211;-85
2021/04/14 02:23:41;;;;;;;13.75;11.73;;;4.10;77.80;;;3.09;64.22;95534.31;5052634;28;20741;-85
2021/04/14 02:26:13;;;;;;;17.70;12.90;;;4.10;77.80;;;3.09;64.04;95547.28;5052743;28;20280;-85
2021/04/14 02:28:42;;;;;;;15.80;11.93;;;4.10;77.80;;;3.07;63.87;95539.63;5036116;28;20224;-85
2021/04/14 02:31:10;;;;;;;16.98;11.90;;;4.00;77.80;;;3.07;64.36;95539.63;5053964;28;20204;-86
2021/04/14 02:33:37;;;;;;;14.93;11.73;;;4.10;78.00;;;3.04;64.26;95530.34;5022901;28;20220;-85
2021/04/14 02:36:06;;;;;;;17.95;12.70;;;4.00;77.90;;;3.03;64.54;95538.28;5053028;28;20254;-85
2021/04/14 02:38:34;;;;;;;14.75;12.35;;;4.00;78.00;;;3.03;64.28;95526.13;5035850;28;20277;-85
2021/04/14 02:41:06;;;;;;;16.50;11.85;;;4.00;77.90;;;3.03;64.23;95536.47;5036072;28;20250;-84
2021/04/14 02:43:33;;;;;;;16.20;12.40;;;4.00;78.00;;;3.02;64.41;95526.25;5052593;28;20220;-85
2021/04/14 02:46:00;;;;;;;14.57;11.05;;;4.00;78.10;;;3.06;64.42;95537.19;5034232;28;20208;-85
2021/04/14 02:48:27;;;;;;;17.45;12.77;;;4.10;78.10;;;3.06;64.42;95532.81;5035754;28;20220;-85
2021/04/14 02:50:54;;;;;;;19.42;12.82;;;4.00;78.20;;;3.09;64.63;95531.72;5035910;28;20200;-85
2021/04/14 02:53:21;;;;;;;19.27;14.00;;;4.00;78.20;;;3.04;64.35;95529.56;5048151;28;20238;-84
2021/04/14 02:55:49;;;;;;;15.07;12.20;;;4.00;78.20;;;3.07;64.71;95534.47;5048710;28;20200;-85
2021/04/14 02:58:16;;;;;;;18.17;13.32;;;4.00;78.20;;;3.08;64.72;95540.47;5035598;28;20576;-86
2021/04/14 03:00:43;;;;;;;16.77;12.85;;;4.00;78.20;;;3.07;64.81;95531.88;5051884;28;20246;-86
2021/04/14 03:03:10;;;;;;;20.13;13.13;;;4.00;78.30;;;3.06;64.76;95542.38;5035272;28;20769;-85
2021/04/14 03:05:37;;;;;;;18.10;12.32;;;4.00;78.30;;;3.06;65.03;95537.19;5034051;28;20196;-84
2021/04/14 03:08:04;;;;;;;16.80;12.30;;;4.00;78.40;;;3.04;64.70;95532.94;5046247;28;20228;-84
2021/04/14 03:10:32;;;;;;;17.80;12.77;;;4.00;78.40;;;3.06;64.95;95539.78;5033377;28;21067;-85
2021/04/14 03:13:01;;;;;;;17.05;12.43;;;4.00;78.40;;;3.06;65.30;95534.59;5057314;28;20226;-83
2021/04/14 03:15:38;;;;;;;16.92;12.52;;;4.00;78.50;;;3.06;65.08;95532.81;5031478;28;20291;-85
2021/04/14 03:18:07;;;;;;;15.15;12.13;;;4.00;78.60;;;3.06;65.15;95530.22;5026462;28;20220;-85
2021/04/14 03:20:34;;;;;;;18.88;12.35;;;4.00;78.50;;;3.06;65.13;95530.22;5030130;28;20266;-84
2021/04/14 03:23:01;;;;;;;19.65;13.65;;;4.00;78.50;;;3.06;65.25;95527.63;5038944;28;20767;-84
2021/04/14 03:25:31;;;;;;;22.08;14.10;;;4.00;78.60;;;3.03;65.47;95528.72;5023400;28;20204;-85
2021/04/14 03:28:04;;;;;;;19.48;13.20;;;4.00;78.80;;;3.05;65.32;95533.75;5052666;28;20705;-85
2021/04/14 03:30:30;;;;;;;20.45;13.93;;;4.00;78.80;;;3.03;65.87;95533.91;5032242;28;20226;-85
2021/04/14 03:32:58;;;;;;;17.17;13.38;;;4.00;78.80;;;3.02;65.38;95521.06;5031497;28;20227;-84
2021/04/14 03:35:28;;;;;;;16.95;13.27;;;4.00;78.90;;;3.06;65.45;95524.22;5031745;28;20691;-84
2021/04/14 03:37:55;;;;;;;19.90;14.68;;;4.00;78.80;;;3.07;65.67;95529.28;5039133;28;20269;-84
2021/04/14 03:40:22;;;;;;;17.65;14.30;;;4.00;78.90;;;3.08;65.87;95530.13;5032685;28;20201;-85
2021/04/14 03:42:51;;;;;;;17.48;13.20;;;4.00;79.10;;;3.10;65.59;95530.78;5048670;28;20212;-84
2021/04/14 03:45:26;;;;;;;21.75;14.70;;;4.00;79.10;;;3.10;65.75;95533.38;5022784;28;20203;-84
2021/04/14 03:47:54;;;;;;;18.52;12.75;;;4.00;79.20;;;3.11;65.74;95538.41;5015434;28;20224;-85
2021/04/14 03:50:22;;;;;;;18.20;13.70;;;4.00;79.20;;;3.15;65.67;95538.97;5030070;28;20319;-83
2021/04/14 03:52:49;;;;;;;16.67;12.63;;;4.10;79.20;;;3.17;65.92;95530.16;5036069;28;20228;-84
2021/04/14 03:55:21;;;;;;;19.58;13.93;;;4.00;79.20;;;3.20;65.75;95540.25;5042283;28;20188;-84
2021/04/14 03:57:48;;;;;;;18.02;13.73;;;4.00;79.30;;;3.22;65.61;95534.09;5040057;28;20270;-84
2021/04/14 04:00:15;;;;;;;17.65;13.35;;;4.10;79.40;;;3.29;65.68;95543.00;5046139;28;20249;-84
2021/04/14 04:02:43;;;;;;;15.90;12.88;;;4.10;79.30;;;3.30;65.42;95537.69;5038622;28;20229;-85
2021/04/14 04:05:11;;;;;;;16.98;13.55;;;4.10;79.20;;;3.31;65.74;95539.31;5029161;28;20201;-85
2021/04/14 04:07:38;;;;;;;19.58;14.35;;;4.20;79.20;;;3.35;65.44;95537.28;5035687;28;20221;-84
2021/04/14 04:10:07;;;;;;;20.02;15.05;;;4.10;79.10;;;3.35;65.24;95539.88;5035029;28;20232;-85
2021/04/14 04:12:34;;;;;;;19.98;15.20;;;4.20;79.30;;;3.35;65.49;95545.88;5036125;28;20733;-85
2021/04/14 04:15:04;;;;;;;18.83;14.57;;;4.20;79.20;;;3.34;65.53;95539.06;5035184;28;20196;-85
2021/04/14 04:17:31;;;;;;;20.13;15.40;;;4.20;79.10;;;3.28;65.47;95533.59;5035761;28;20208;-85
2021/04/14 04:19:58;;;;;;;19.63;14.90;;;4.20;79.10;;;3.32;65.21;95553.09;5036941;28;20204;-85
2021/04/14 04:22:25;;;;;;;21.67;14.65;;;4.20;79.10;;;3.32;65.23;95555.69;5037162;28;20216;-86
2021/04/14 04:24:52;;;;;;;20.02;14.40;;;4.20;79.10;;;3.29;65.51;95546.41;5037324;28;20192;-85
2021/04/14 04:27:19;;;;;;;21.13;15.48;;;4.20;79.10;;;3.30;65.23;95560.22;5035975;28;20218;-85
2021/04/14 04:29:46;;;;;;;22.77;16.25;;;4.20;79.10;;;3.26;65.71;95554.47;5054547;28;20282;-86
2021/04/14 04:32:13;;;;;;;18.58;13.88;;;4.20;79.10;;;3.28;65.47;95552.53;5036572;28;20224;-85
2021/04/14 04:34:40;;;;;;;18.85;13.75;;;4.20;79.10;;;3.29;65.39;95550.78;5036984;28;20215;-85
2021/04/14 04:37:06;;;;;;;17.33;13.45;;;4.20;79.10;;;3.31;65.12;95552.28;5036831;28;20215;-85
2021/04/14 04:39:33;;;;;;;20.10;14.68;;;4.20;79.20;;;3.32;65.22;95545.31;5036235;28;20198;-86
2021/04/14 04:42:00;;;;;;;19.88;14.88;;;4.20;79.10;;;3.31;65.53;95551.47;5037619;28;20242;-86
2021/04/14 04:44:27;;;;;;;19.40;15.90;;;4.20;79.10;;;3.27;65.70;95544.91;5038547;28;20196;-86
2021/04/14 04:46:54;;;;;;;19.88;14.50;;;4.20;79.10;;;3.29;65.64;95551.59;5038221;28;20235;-86
2021/04/14 04:49:21;;;;;;;17.95;14.38;;;4.20;79.10;;;3.30;65.53;95547.25;5054919;28;20708;-87
2021/04/14 04:51:48;;;;;;;21.27;14.65;;;4.20;79.10;;;3.31;65.55;95552.28;5038040;28;20311;-86
2021/04/14 04:54:14;;;;;;;19.25;14.45;;;4.20;79.10;;;3.30;65.68;95555.84;5021497;28;20231;-86
2021/04/14 04:56:41;;;;;;;16.13;13.55;;;4.20;79.20;;;3.32;65.47;95548.75;5021469;28;20224;-86
2021/04/14 04:59:09;;;;;;;21.40;15.77;;;4.20;79.30;;;3.37;65.62;95556.16;5029671;28;20201;-86
2021/04/14 05:01:36;;;;;;;20.70;15.00;;;4.20;79.30;;;3.39;65.63;95554.22;5032865;28;20239;-86
2021/04/14 05:04:03;;;;;;;18.33;14.23;;;4.20;79.40;;;3.42;65.60;95553.97;5035394;28;20270;-86
2021/04/14 05:06:30;;;;;;;16.90;14.20;;;4.20;79.40;;;3.44;65.50;95551.25;5052958;28;20685;-86
2021/04/14 05:08:57;;;;;;;19.55;14.30;;;4.30;79.50;;;3.46;65.57;95557.94;5036255;28;20222;-86
2021/04/14 05:11:24;;;;;;;21.83;14.70;;;4.30;79.50;;;3.43;65.61;95560.81;5036353;28;20314;-87
2021/04/14 05:13:50;;;;;;;18.98;13.85;;;4.30;79.40;;;3.51;65.56;95573.09;5036339;28;20195;-86
2021/04/14 05:16:17;;;;;;;19.63;14.50;;;4.30;79.50;;;3.53;65.52;95571.22;5050862;28;20642;-86
2021/04/14 05:18:44;;;;;;;19.17;14.43;;;4.30;79.50;;;3.54;65.41;95578.03;5035012;28;20207;-86
2021/04/14 05:21:11;;;;;;;18.60;14.27;;;4.30;79.50;;;3.59;65.63;95569.84;5034267;28;20210;-85
2021/04/14 05:23:38;;;;;;;19.85;13.95;;;4.40;79.60;;;3.64;65.43;95578.06;5018118;28;20200;-86
2021/04/14 05:26:05;;;;;;;22.33;15.15;;;4.40;80.40;;;3.66;65.53;95587.34;5044502;28;20197;-87
2021/04/14 05:28:33;;;;;;;20.90;14.15;;;4.40;80.50;;;3.72;65.53;95575.59;5024370;28;20217;-86
2021/04/14 05:31:00;;;;;;;19.67;14.68;;;4.50;79.90;;;3.79;65.55;95579.31;5050300;28;20196;-85
2021/04/14 05:33:27;;;;;;;19.98;15.95;;;4.50;79.90;;;3.84;65.72;95577.16;5034481;28;20308;-85
2021/04/14 05:35:55;;;;;;;20.33;16.42;;;4.50;79.90;;;3.88;65.62;95574.28;5035497;28;20204;-86
2021/04/14 05:38:22;;;;;;;22.17;15.30;;;4.60;79.80;;;3.93;65.27;95567.75;5006839;28;20224;-87
2021/04/14 05:40:49;;;;;;;19.02;15.25;;;4.60;79.70;;;3.95;65.37;95560.63;5032632;28;20208;-89
2021/04/14 05:43:30;;;;;;;19.73;15.05;;;4.60;79.80;;;4.03;65.41;95565.16;5017293;28;20224;-89
2021/04/14 05:46:05;;;;;;;25.02;16.92;;;4.70;79.80;;;4.11;65.33;95562.72;5033799;28;20210;-87
2021/04/14 05:48:32;;;;;;;19.23;16.02;;;4.80;80.00;;;4.20;65.29;95565.44;5034929;28;20218;-89
2021/04/14 05:51:04;;;;;;;23.00;17.02;;;4.80;80.00;;;4.26;65.39;95562.28;5030595;28;20585;-88
2021/04/14 05:53:33;;;;;;;20.10;16.67;;;4.90;80.00;;;4.29;64.78;95572.44;5033258;28;20235;-88
2021/04/14 05:56:00;;;;;;;21.02;16.45;;;4.90;79.70;;;4.28;64.90;95555.19;5061638;28;20191;-88
2021/04/14 05:58:28;;;;;;;21.52;17.58;;;5.00;79.60;;;4.23;65.01;95550.41;5027273;28;20223;-88
2021/04/14 06:00:56;;;;;;;21.85;17.67;;;5.00;79.60;;;4.31;65.17;95560.94;5051294;28;20192;-88
2021/04/14 06:03:25;;;;;;;24.17;17.50;;;5.10;79.70;;;4.34;65.20;95567.63;5031460;28;20212;-88
2021/04/14 06:05:58;;;;;;;24.00;18.15;;;5.20;79.80;;;4.31;65.47;95565.31;5034349;28;20202;-87
2021/04/14 06:08:27;;;;;;;25.92;18.70;;;5.10;79.60;;;4.36;65.22;95570.94;5049270;28;20702;-87
2021/04/14 06:10:54;;;;;;;23.75;18.33;;;5.10;79.60;;;4.39;65.22;95562.84;5027010;28;20238;-89
2021/04/14 06:13:21;;;;;;;23.00;17.45;;;5.10;80.40;;;4.48;65.30;95564.63;5025409;28;20249;-89
2021/04/14 06:15:47;;;;;;;23.17;17.60;;;5.10;79.90;;;4.67;65.28;95565.56;5042744;28;20192;-88
2021/04/14 06:18:14;;;;;;;22.08;17.85;;;5.20;80.20;;;4.81;65.07;95570.31;5034993;28;20239;-88
2021/04/14 06:20:41;;;;;;;22.35;17.52;;;5.20;80.20;;;4.98;65.01;95557.59;5030885;28;20189;-87
2021/04/14 06:23:12;;;;;;;23.27;16.58;;;5.30;80.30;;;5.10;64.64;95560.81;5027624;28;20224;-87
2021/04/14 06:25:54;;;;;;;20.48;16.50;;;5.40;80.30;;;5.20;64.58;95564.22;5041477;28;20285;-87
2021/04/14 06:28:24;;;;;;;20.95;16.75;;;5.50;80.10;;;5.22;64.29;95561.47;5040786;28;20221;-88
2021/04/14 06:30:52;;;;;;;20.65;16.48;;;5.60;79.80;;;5.23;64.04;95565.72;5039503;28;20197;-88
2021/04/14 06:33:20;;;;;;;21.52;16.63;;;5.70;79.70;;;5.26;64.14;95566.25;5024111;28;20220;-87
2021/04/14 06:35:48;;;;;;;19.40;16.33;;;5.80;79.50;;;5.21;63.90;95563.25;5038604;28;20280;-86
2021/04/14 06:38:19;;;;;;;20.35;15.60;;;5.80;79.30;;;5.21;63.92;95563.25;5029205;28;20216;-86
2021/04/14 06:44:05;;;;;;;21.20;16.75;;;5.90;79.00;;;5.15;63.94;95563.84;5026626;28;20216;-86
2021/04/14 06:46:35;;;;;;;20.60;17.08;;;5.80;78.90;;;5.17;63.86;95572.28;5026855;28;20263;-86
2021/04/14 06:49:19;;;;;;;22.90;17.20;;;5.90;79.00;;;5.16;63.72;95570.66;5040681;28;20231;-86
2021/04/14 06:51:58;;;;;;;21.13;16.33;;;5.90;79.00;;;5.20;63.86;95584.19;5030351;28;20698;-86
2021/04/14 06:54:53;;;;;;;18.38;14.70;;;5.90;79.00;;;5.19;63.53;95572.97;5044186;28;20191;-87
2021/04/14 06:57:35;;;;;;;20.73;16.00;;;5.90;78.90;;;5.27;63.78;95574.84;5049581;28;20278;-87
2021/04/14 07:00:31;;;;;;;20.23;14.32;;;5.90;78.90;;;5.28;63.90;95571.31;5034103;28;20196;-87
2021/04/14 07:03:25;;;;;;;22.38;15.55;;;5.90;78.80;;;5.31;63.63;95573.63;5032353;28;20219;-87
2021/04/14 07:06:02;;;;;;;18.23;14.55;;;6.00;78.80;;;5.41;63.93;95577.00;5037732;28;20192;-87
2021/04/14 07:08:42;;;;;;;18.45;14.43;;;6.00;78.90;;;5.44;63.66;95576.72;5036108;28;20216;-87
2021/04/14 07:11:20;;;;;;;19.55;15.05;;;6.10;78.80;;;5.43;63.21;95577.69;5035560;28;20249;-87
2021/04/14 07:13:49;;;;;;;20.10;16.10;;;6.10;78.40;;;5.50;63.06;95579.72;5032440;28;20250;-87
2021/04/14 07:16:41;;;;;;;17.15;14.65;;;6.20;79.40;;;5.57;63.39;95584.19;5032196;28;20192;-86
2021/04/14 07:19:21;;;;;;;19.88;14.93;;;6.20;78.60;;;5.65;63.30;95573.06;5032375;28;20203;-87
2021/04/14 07:22:50;;;;;;;17.92;15.05;;;6.20;78.70;;;5.75;63.52;95573.84;5048083;28;20216;-87
2021/04/14 07:25:44;;;;;;;18.67;14.77;;;6.30;78.80;;;5.86;63.35;95562.41;5021881;28;20218;-87
2021/04/14 07:28:56;;;;;;;18.63;15.00;;;6.40;78.90;;;6.01;63.84;95573.16;5006896;28;20698;-87
2021/04/14 07:31:43;;;;;;;18.75;16.33;;;6.50;78.70;;;6.12;63.16;95572.13;5031557;28;20196;-86
2021/04/14 07:34:37;;;;;;;17.77;15.25;;;6.60;79.00;;;6.29;62.74;95578.31;5049900;28;20270;-87
2021/04/14 07:37:13;;;;;;;19.40;15.90;;;6.70;79.10;;;6.39;62.15;95575.66;5033527;28;20216;-86
2021/04/14 07:39:59;;;;;;;20.02;16.52;;;6.80;78.60;;;6.47;62.06;95564.47;5044935;28;20231;-86
2021/04/14 07:43:00;;;;;;;17.20;14.70;;;6.90;78.40;;;6.60;61.94;95579.72;5051710;28;20714;-86
2021/04/14 07:45:33;;;;;;;22.33;15.48;;;7.00;78.30;;;6.72;61.78;95576.72;5052375;28;20993;-86
2021/04/14 07:48:33;;;;;;;16.52;14.23;;;7.10;78.40;;;6.82;61.37;95575.81;5053605;28;20257;-87
2021/04/14 07:51:03;;;;;;;20.40;15.57;;;7.20;78.40;;;6.83;60.46;95574.84;5035683;28;20188;-88
2021/04/14 07:53:35;;;;;;;17.55;14.00;;;7.30;77.50;;;6.83;60.70;95572.25;5035949;28;20215;-87
2021/04/14 07:56:06;;;;;;;17.67;13.95;;;7.30;77.60;;;6.84;59.53;95571.28;5019163;28;20196;-88
2021/04/14 07:58:37;;;;;;;17.20;13.65;;;7.40;77.10;;;6.77;58.80;95575.47;5027239;28;20224;-87
2021/04/14 08:01:21;;;;;;;14.80;11.98;;;7.40;76.70;;;6.80;59.27;95567.31;5034417;28;20208;-89
2021/04/14 08:03:50;;;;;;;14.52;12.38;;;7.40;76.20;;;6.76;59.09;95566.81;5037321;28;20530;-89
2021/04/14 08:06:29;;;;;;;15.70;11.52;;;7.40;76.20;;;6.72;58.60;95570.69;5020977;28;20626;-89
2021/04/14 08:09:09;;;;;;;12.40;10.10;;;7.40;75.70;;;6.69;58.83;95571.03;5020524;28;20285;-89
2021/04/14 08:11:37;;;;;;;12.63;10.68;;;7.40;76.10;;;6.69;58.87;95569.22;5031061;28;20223;-88
2021/04/14 08:14:34;;;;;;;14.88;10.00;;;7.30;76.00;;;6.71;58.32;95564.69;5002335;28;20205;-89
2021/04/14 08:17:19;;;;;;;13.27;9.95;;;7.40;75.60;;;6.71;57.94;95564.69;5018912;28;20295;-89
2021/04/14 08:19:58;;;;;;;12.43;9.73;;;7.30;75.50;;;6.72;58.07;95558.47;5003053;28;20291;-89
2021/04/14 08:22:29;;;;;;;12.10;9.05;;;7.30;75.40;;;6.80;58.20;95557.72;5019055;28;20221;-88
2021/04/14 08:25:05;;;;;;;13.52;9.02;;;7.40;75.60;;;6.86;58.54;95543.25;5002878;28;20291;-90
2021/04/14 08:27:32;;;;;;;13.48;8.63;;;7.40;75.40;;;7.00;58.42;95544.50;5002464;28;20292;-89
2021/04/14 08:30:02;;;;;;;11.95;9.07;;;7.40;75.90;;;7.08;58.30;95543.72;5034167;28;20267;-88
2021/04/14 08:33:02;;;;;;;14.32;10.10;;;7.50;75.70;;;7.12;57.49;95545.06;5038662;28;20216;-90
2021/04/14 08:35:47;;;;;;;10.23;8.35;;;7.70;75.40;;;7.18;57.73;95550.47;5014510;28;20222;-88
2021/04/14 08:38:28;;;;;;;11.68;9.18;;;7.70;75.60;;;7.15;56.57;95534.28;5018848;28;20221;-87
2021/04/14 08:40:59;;;;;;;13.35;9.23;;;7.70;74.60;;;7.13;57.12;95533.63;5019642;28;20208;-89
2021/04/14 08:43:39;;;;;;;13.10;8.82;;;7.70;74.90;;;7.12;56.88;95537.22;5055062;28;20751;-88
2021/04/14 08:46:34;;;;;;;12.55;8.73;;;7.70;74.40;;;7.14;57.07;95532.66;5038861;28;20243;-89
2021/04/14 08:49:10;;;;;;;10.55;8.70;;;7.70;74.60;;;7.18;56.43;95532.19;5055101;28;20208;-87
2021/04/14 08:51:43;;;;;;;11.25;7.55;;;7.70;74.30;;;7.11;54.49;95538.19;5038150;28;20639;-88
2021/04/14 08:54:18;;;;;;;11.82;8.07;;;7.70;73.10;;;7.03;54.58;95537.19;5038354;28;20219;-87
2021/04/14 08:56:45;;;;;;;8.63;7.25;;;7.70;73.40;;;7.02;54.67;95537.34;5037999;28;20288;-87
2021/04/14 08:59:13;;;;;;;11.45;7.45;;;7.70;73.30;;;6.98;54.55;95534.22;5032045;28;20193;-87
2021/04/14 09:01:40;;;;;;;9.00;7.22;;;7.60;73.00;;;7.07;55.20;95534.25;5018004;28;20228;-88
2021/04/14 09:04:11;;;;;;;7.82;7.03;;;7.60;73.50;;;7.19;55.80;95539.06;5045089;28;20284;-88
2021/04/14 09:06:40;;;;;;;10.23;8.43;;;7.60;74.20;;;7.38;55.11;95526.75;5054257;28;20220;-88
2021/04/14 09:09:15;;;;;;;8.98;7.13;;;7.70;74.30;;;7.50;54.59;95535.94;5054626;28;20248;-87
2021/04/14 09:11:44;;;;;;;10.52;6.22;;;7.80;73.70;;;7.67;54.78;95536.81;5029964;28;20220;-89
2021/04/14 09:14:26;;;;;;;8.10;6.25;;;7.90;74.40;;;7.80;54.29;95535.53;5034567;28;20204;-89
2021/04/14 09:17:20;;;;;;;11.32;5.85;;;8.00;73.40;;;7.87;54.06;95526.09;5018225;28;20220;-89
2021/04/14 09:19:50;;;;;;;10.43;5.88;;;8.20;73.30;;;8.00;53.79;95534.28;5031603;28;20208;-88
2021/04/14 09:22:28;;;;;;;10.07;5.68;;;8.30;73.50;;;8.02;51.36;95518.47;5017791;28;20228;-88
2021/04/14 09:24:56;;;;;;;8.00;5.40;;;8.40;72.30;;;8.07;51.47;95523.19;5027580;28;20203;-87
2021/04/14 09:27:34;;;;;;;7.63;5.60;;;8.40;71.60;;;8.03;50.24;95525.31;5029328;28;20421;-89
2021/04/14 09:30:28;;;;;;;8.38;5.70;;;8.50;70.80;;;8.04;52.18;95534.78;5032426;28;20310;-88
2021/04/14 09:33:06;;;;;;;7.30;5.60;;;8.50;71.80;;;8.02;50.71;95515.84;5051734;28;20220;-89
2021/04/14 09:35:33;;;;;;;7.18;6.05;;;8.50;70.50;;;8.11;52.60;95524.53;5059785;28;20201;-89
2021/04/14 09:38:27;;;;;;;7.72;5.20;;;8.50;71.70;;;8.20;51.39;95525.34;5044567;28;20228;-88
2021/04/14 09:41:16;;;;;;;5.68;5.18;;;8.60;71.10;;;8.20;49.67;95510.47;5050650;28;20744;-87
2021/04/14 09:43:46;;;;;;;7.80;4.53;;;8.60;70.00;;;8.27;50.30;95514.06;5064650;28;20299;-88
2021/04/14 09:46:32;;;;;;;6.78;5.00;;;8.60;70.20;;;8.34;49.81;95517.66;5050422;28;20733;-88
2021/04/14 09:49:15;;;;;;;8.35;5.60;;;8.70;70.30;;;8.40;50.32;95521.44;5050688;28;20249;-87
2021/04/14 09:51:57;;;;;;;10.52;5.63;;;8.70;70.30;;;8.49;50.72;95510.03;5050555;28;20216;-88
2021/04/14 09:54:30;;;;;;;7.00;5.47;;;8.80;70.10;;;8.71;49.83;95514.75;5035079;28;20200;-87
2021/04/14 09:56:59;;;;;;;7.88;5.63;;;8.90;70.00;;;8.80;49.59;95522.44;5033196;28;20231;-88
2021/04/14 09:59:43;;;;;;;8.65;5.28;;;9.00;70.10;;;8.84;49.72;95519.47;5037993;28;20196;-88
2021/04/14 10:02:20;;;;;;;9.30;5.05;;;9.10;69.80;;;8.75;47.61;95529.97;5037605;28;20307;-88
2021/04/14 10:04:49;;;;;;;5.40;4.25;;;9.10;68.20;;;8.63;48.03;95526.06;5027116;28;20212;-88
2021/04/14 10:07:24;;;;;;;4.95;4.38;;;9.10;68.30;;;8.49;47.33;95519.66;5033241;28;20750;-89
2021/04/14 10:10:06;;;;;;;7.88;4.13;;;9.10;67.30;;;8.37;47.10;95519.13;5067451;28;20234;-88
2021/04/14 10:12:33;;;;;;;5.80;4.30;;;9.00;67.20;;;8.31;46.97;95520.63;5051992;28;20286;-89
2021/04/14 10:15:04;;;;;;;5.88;4.20;;;8.90;67.20;;;8.32;47.73;95517.03;5034364;28;20231;-88
2021/04/14 10:17:33;;;;;;;6.10;4.25;;;8.90;67.70;;;8.45;48.67;95507.88;5042984;28;20216;-89
2021/04/14 10:20:19;;;;;;;7.00;4.05;;;8.90;68.40;;;8.54;47.05;95519.19;5045953;28;20196;-87
2021/04/14 10:22:51;;;;;;;5.72;4.35;;;8.90;67.30;;;8.65;46.92;95511.00;5045080;28;20689;-88
2021/04/14 10:25:26;;;;;;;7.07;4.18;;;9.00;67.30;;;8.79;47.65;95514.75;5033091;28;20650;-88
2021/04/14 10:28:06;;;;;;;5.07;3.90;;;9.00;68.00;;;8.90;47.25;95509.19;5023574;28;20704;-88
2021/04/14 10:30:40;;;;;;;4.38;3.97;;;9.10;67.20;;;8.95;47.05;95504.25;5067309;28;20233;-88
2021/04/14 10:33:17;;;;;;;6.85;4.50;;;9.20;67.20;;;8.99;46.80;95503.94;5034168;28;20240;-88
2021/04/14 10:35:46;;;;;;;5.32;4.03;;;9.30;67.10;;;9.06;45.57;95510.94;5050304;28;20310;-88
2021/04/14 10:38:13;;;;;;;8.05;4.28;;;9.30;66.70;;;9.12;45.08;95512.88;5050926;28;20246;-88
2021/04/14 10:40:44;;;;;;;8.00;5.38;;;9.40;66.40;;;9.14;44.96;95502.25;5051498;28;20207;-87
2021/04/14 10:43:21;;;;;;;6.55;5.30;;;9.50;65.70;;;9.12;43.27;95499.00;5034775;28;20207;-87
2021/04/14 10:46:14;;;;;;;7.82;5.00;;;9.50;65.40;;;9.10;44.68;95500.97;5052479;28;20203;-88